Time;durP1;ratioP1;P1;durP2;ratioP2;P2;SDS_P1;SDS_P2;PMS_P1;PMS_P2;Temp;Humidity;BMP_temperature;BMP_pressure;BME280_temperature;BME280_humidity;BME280_pressure;Samples;Min_cycle;Max_cycle;Signal;HPM_P1;HPM_P2
2022/08/02 00:01:26;;;;;;;;;;;;;;;;;;;;;
2022/08/02 00:03:52;;;;;;;3.53;3.23;;;;;;;;;;5054298;28;20444;-78
2022/08/02 00:06:23;;;;;;;6.67;3.20;;;;;;;;;;5054688;28;20988;-78
2022/08/02 00:09:22;;;;;;;;;;;;;;;;;;;;;
2022/08/02 00:12:16;;;;;;;3.73;3.00;;;;;;;;;;5054971;28;20404;-78
2022/08/02 00:17:30;;;;;;;3.23;2.93;;;;;;;;;;5047083;28;20409;-78
2022/08/02 00:19:56;;;;;;;6.20;3.13;;;;;;;;;;5054523;28;20413;-77
2022/08/02 00:22:22;;;;;;;7.03;3.40;;;;;;;;;;5052989;28;20491;-77
2022/08/02 00:24:48;;;;;;;4.00;3.00;;;;;;;;;;5054432;28;20490;-78
2022/08/02 00:27:17;;;;;;;5.97;3.37;;;;;;;;;;5053103;28;20387;-78
2022/08/02 00:29:43;;;;;;;4.10;3.70;;;;;;;;;;5054435;28;20379;-78
2022/08/02 00:32:09;;;;;;;4.83;3.83;;;;;;;;;;5053317;28;20477;-78
2022/08/02 00:37:37;;;;;;;7.53;3.80;;;;;;;;;;5054185;28;20510;-78
2022/08/02 00:40:03;;;;;;;3.23;2.90;;;;;;;;;;5054365;28;20439;-78
2022/08/02 00:42:29;;;;;;;3.63;3.30;;;;;;;;;;5056139;28;20755;-78
2022/08/02 00:44:57;;;;;;;3.60;3.30;;;;;;;;;;5054011;28;20445;-78
2022/08/02 00:47:23;;;;;;;3.63;3.33;;;;;;;;;;5053984;28;20905;-78
2022/08/02 00:49:57;;;;;;;3.20;2.67;;;;;;;;;;5052850;28;20891;-78
2022/08/02 00:52:26;;;;;;;9.03;4.13;;;;;;;;;;5053864;28;20441;-77
2022/08/02 00:54:54;;;;;;;7.13;3.27;;;;;;;;;;5052170;28;20439;-77
2022/08/02 01:00:08;;;;;;;3.30;3.00;;;;;;;;;;5053319;28;20814;-77
2022/08/02 01:02:36;;;;;;;5.00;3.87;;;;;;;;;;5053473;28;20494;-77
2022/08/02 01:05:14;;;;;;;6.83;3.60;;;;;;;;;;5053655;28;20396;-78
2022/08/02 01:07:40;;;;;;;6.33;3.73;;;;;;;;;;5053697;28;20492;-77
2022/08/02 01:10:14;;;;;;;4.93;4.20;;;;;;;;;;5053925;28;20542;-77
2022/08/02 01:12:48;;;;;;;4.70;3.60;;;;;;;;;;5053360;28;20429;-77
2022/08/02 01:15:14;;;;;;;8.70;3.50;;;;;;;;;;5053577;28;20451;-77
2022/08/02 01:18:14;;;;;;;;;;;;;;;;;;;;;
2022/08/02 01:20:46;;;;;;;4.93;3.50;;;;;;;;;;5051837;28;20475;-77
2022/08/02 01:23:20;;;;;;;6.53;3.10;;;;;;;;;;5052523;28;20419;-78
2022/08/02 01:26:00;;;;;;;6.57;3.43;;;;;;;;;;5053357;28;20387;-77
2022/08/02 01:28:47;;;;;;;6.80;3.93;;;;;;;;;;5053362;28;20782;-77
2022/08/02 01:31:20;;;;;;;4.97;3.47;;;;;;;;;;5053384;28;20451;-77
2022/08/02 01:34:08;;;;;;;5.00;3.20;;;;;;;;;;5052965;28;20513;-77
2022/08/02 01:36:56;;;;;;;6.03;3.67;;;;;;;;;;5053193;28;20415;-78
2022/08/02 01:39:24;;;;;;;5.23;3.63;;;;;;;;;;5013835;28;20845;-77
2022/08/02 01:41:54;;;;;;;6.93;3.70;;;;;;;;;;5052119;28;20774;-77
2022/08/02 01:44:21;;;;;;;5.50;3.37;;;;;;;;;;5052781;28;20524;-77
2022/08/02 01:47:08;;;;;;;3.63;3.30;;;;;;;;;;5053272;28;20425;-77
2022/08/02 01:49:38;;;;;;;6.50;4.10;;;;;;;;;;5053284;28;20409;-78
2022/08/02 01:52:25;;;;;;;7.10;3.70;;;;;;;;;;5051829;28;20929;-79
2022/08/02 01:55:29;;;;;;;5.73;3.80;;;;;;;;;;5051379;28;20439;-78
2022/08/02 01:57:57;;;;;;;6.33;3.73;;;;;;;;;;5012466;28;20494;-77
2022/08/02 02:00:26;;;;;;;8.70;3.87;;;;;;;;;;5053225;28;20771;-78
2022/08/02 02:03:12;;;;;;;7.97;4.43;;;;;;;;;;5052744;28;20401;-77
2022/08/02 02:05:42;;;;;;;10.30;4.20;;;;;;;;;;5058248;28;20495;-78
2022/08/02 02:08:09;;;;;;;6.20;4.10;;;;;;;;;;5059729;28;20436;-78
2022/08/02 02:10:45;;;;;;;5.47;4.10;;;;;;;;;;5059595;28;20487;-77
2022/08/02 02:13:13;;;;;;;4.43;4.03;;;;;;;;;;5058033;28;20534;-77
2022/08/02 02:16:05;;;;;;;6.40;4.33;;;;;;;;;;5059409;28;20379;-78
2022/08/02 02:18:37;;;;;;;8.20;4.10;;;;;;;;;;5056246;28;20525;-78
2022/08/02 02:21:04;;;;;;;4.77;4.30;;;;;;;;;;5059582;28;20792;-78
2022/08/02 02:23:30;;;;;;;4.77;4.00;;;;;;;;;;5059100;28;20451;-78
2022/08/02 02:27:07;;;;;;;;;;;;;;;;;;;;;
2022/08/02 02:29:10;;;;;;;8.77;3.80;;;;;;;;;;5046894;28;20448;-78
2022/08/02 02:35:08;;;;;;;5.93;4.67;;;;;;;;;;5059034;28;20407;-78
2022/08/02 02:37:36;;;;;;;7.53;4.50;;;;;;;;;;5057993;28;20393;-78
2022/08/02 02:40:13;;;;;;;5.10;4.50;;;;;;;;;;5059266;28;20959;-78
2022/08/02 02:42:41;;;;;;;5.90;4.73;;;;;;;;;;5058567;28;20440;-77
2022/08/02 02:45:32;;;;;;;6.63;5.07;;;;;;;;;;5058228;28;20518;-77
2022/08/02 02:48:05;;;;;;;8.43;4.53;;;;;;;;;;5059272;28;20420;-77
2022/08/02 02:51:11;;;;;;;10.63;5.40;;;;;;;;;;5058113;28;20417;-77
2022/08/02 02:53:37;;;;;;;6.00;5.40;;;;;;;;;;5058383;28;20946;-77
2022/08/02 02:59:01;;;;;;;5.77;5.20;;;;;;;;;;5057634;28;20467;-77
2022/08/02 03:01:34;;;;;;;13.00;6.00;;;;;;;;;;5059086;28;20436;-77
2022/08/02 03:04:30;;;;;;;6.60;4.60;;;;;;;;;;5058784;28;20931;-77
2022/08/02 03:07:13;;;;;;;7.13;4.87;;;;;;;;;;5058791;28;20437;-77
2022/08/02 03:12:51;;;;;;;6.40;5.10;;;;;;;;;;5058900;28;20463;-77
2022/08/02 03:19:03;;;;;;;;;;;;;;;;;;;;;
2022/08/02 03:21:38;;;;;;;7.50;5.47;;;;;;;;;;5055756;28;20853;-78
2022/08/02 03:24:07;;;;;;;10.33;5.53;;;;;;;;;;5055401;28;20474;-78
2022/08/02 03:26:42;;;;;;;5.67;5.13;;;;;;;;;;5053952;28;20409;-78
2022/08/02 03:29:32;;;;;;;5.60;4.70;;;;;;;;;;5054460;28;20419;-77
2022/08/02 03:32:11;;;;;;;6.03;5.37;;;;;;;;;;5054327;28;20431;-77
2022/08/02 03:34:47;;;;;;;7.70;5.00;;;;;;;;;;5055184;28;20885;-78
2022/08/02 03:37:29;;;;;;;8.13;5.63;;;;;;;;;;5037500;28;20415;-78
2022/08/02 03:39:59;;;;;;;6.83;5.47;;;;;;;;;;5054452;28;20428;-79
2022/08/02 03:42:32;;;;;;;7.70;5.50;;;;;;;;;;5055301;28;20383;-80
2022/08/02 03:45:18;;;;;;;6.43;5.77;;;;;;;;;;5055992;28;20431;-78
2022/08/02 03:47:52;;;;;;;7.80;6.13;;;;;;;;;;5055298;28;20374;-79
2022/08/02 03:50:21;;;;;;;8.20;6.07;;;;;;;;;;5055308;28;20431;-78
2022/08/02 03:52:47;;;;;;;5.80;4.90;;;;;;;;;;5054681;28;20363;-78
2022/08/02 03:55:19;;;;;;;8.73;5.07;;;;;;;;;;5053880;28;20427;-78
2022/08/02 03:57:45;;;;;;;6.53;5.30;;;;;;;;;;5055287;28;20481;-78
2022/08/02 04:00:12;;;;;;;11.03;6.10;;;;;;;;;;5055144;28;20506;-79
2022/08/02 04:02:38;;;;;;;5.93;5.33;;;;;;;;;;5054824;28;20496;-80
2022/08/02 04:05:07;;;;;;;6.77;5.40;;;;;;;;;;5055536;28;20413;-78
2022/08/02 04:07:36;;;;;;;5.60;5.10;;;;;;;;;;5056462;28;20489;-78
2022/08/02 04:10:02;;;;;;;7.70;5.63;;;;;;;;;;5055187;28;20416;-79
2022/08/02 04:12:28;;;;;;;6.47;5.40;;;;;;;;;;5053477;28;20432;-79
2022/08/02 04:15:01;;;;;;;7.33;5.90;;;;;;;;;;5054619;28;20425;-78
2022/08/02 04:17:30;;;;;;;6.43;5.80;;;;;;;;;;5055140;28;20397;-78
2022/08/02 04:20:14;;;;;;;7.50;6.80;;;;;;;;;;5054926;28;20435;-78
2022/08/02 04:22:47;;;;;;;7.43;5.90;;;;;;;;;;5054396;28;20397;-78
2022/08/02 04:25:14;;;;;;;7.10;6.50;;;;;;;;;;5053576;28;20440;-78
2022/08/02 04:27:40;;;;;;;7.03;6.17;;;;;;;;;;5054371;28;20931;-78
2022/08/02 04:30:16;;;;;;;13.27;6.80;;;;;;;;;;5054825;28;20441;-78
2022/08/02 04:32:42;;;;;;;8.83;6.50;;;;;;;;;;5054223;28;20391;-78
2022/08/02 04:35:08;;;;;;;10.13;6.40;;;;;;;;;;5053547;28;20784;-78
2022/08/02 04:37:34;;;;;;;6.90;6.30;;;;;;;;;;5054524;28;20974;-78
2022/08/02 04:40:00;;;;;;;7.17;6.50;;;;;;;;;;5054472;28;20508;-78
2022/08/02 04:42:26;;;;;;;6.83;6.23;;;;;;;;;;5054538;28;20836;-78
2022/08/02 04:44:53;;;;;;;16.13;6.93;;;;;;;;;;5053231;28;20475;-78
2022/08/02 04:47:20;;;;;;;9.70;6.80;;;;;;;;;;5054889;28;20412;-78
2022/08/02 04:49:48;;;;;;;7.17;6.47;;;;;;;;;;5054361;28;20726;-78
2022/08/02 04:52:14;;;;;;;8.07;6.13;;;;;;;;;;5054192;28;20415;-79
2022/08/02 04:54:40;;;;;;;9.77;6.93;;;;;;;;;;5054133;28;20532;-78
2022/08/02 04:57:53;;;;;;;7.40;6.10;;;;;;;;;;5052958;28;20440;-78
2022/08/02 04:59:55;;;;;;;6.43;5.70;;;;;;;;;;5054001;28;20480;-78
2022/08/02 05:02:24;;;;;;;7.60;6.53;;;;;;;;;;5053765;28;20445;-79
2022/08/02 05:04:50;;;;;;;7.37;6.33;;;;;;;;;;5052704;28;20486;-78
2022/08/02 05:07:16;;;;;;;7.17;6.17;;;;;;;;;;5036148;28;20570;-79
2022/08/02 05:09:42;;;;;;;8.23;7.43;;;;;;;;;;5053921;28;20920;-78
2022/08/02 05:12:12;;;;;;;6.80;6.03;;;;;;;;;;5053794;28;20412;-78
2022/08/02 05:14:38;;;;;;;9.27;6.77;;;;;;;;;;5035490;28;20467;-78
2022/08/02 05:17:04;;;;;;;8.57;6.40;;;;;;;;;;5053848;28;20380;-78
2022/08/02 05:19:30;;;;;;;7.37;5.70;;;;;;;;;;5052637;28;20452;-78
2022/08/02 05:22:01;;;;;;;6.53;5.93;;;;;;;;;;5054030;28;20444;-78
2022/08/02 05:24:27;;;;;;;7.37;6.03;;;;;;;;;;5053401;28;20951;-78
2022/08/02 05:27:05;;;;;;;6.40;5.57;;;;;;;;;;5053482;28;20391;-78
2022/08/02 05:29:31;;;;;;;6.53;5.93;;;;;;;;;;5053581;28;20955;-78
2022/08/02 05:31:57;;;;;;;6.17;5.67;;;;;;;;;;5052848;28;20714;-78
2022/08/02 05:34:24;;;;;;;7.60;5.43;;;;;;;;;;5052305;28;20872;-77
2022/08/02 05:36:50;;;;;;;13.50;6.30;;;;;;;;;;5036032;28;20944;-78
2022/08/02 05:39:22;;;;;;;6.27;4.83;;;;;;;;;;5052819;28;20436;-78
2022/08/02 05:41:48;;;;;;;7.93;5.00;;;;;;;;;;5053628;28;20426;-78
2022/08/02 05:44:14;;;;;;;6.20;4.90;;;;;;;;;;5052944;28;20433;-78
2022/08/02 05:46:40;;;;;;;7.97;5.10;;;;;;;;;;5053590;28;20380;-78
2022/08/02 05:49:24;;;;;;;5.90;4.83;;;;;;;;;;5053113;28;20503;-78
2022/08/02 05:52:12;;;;;;;5.40;3.93;;;;;;;;;;5053177;28;20401;-78
2022/08/02 05:54:44;;;;;;;6.07;4.87;;;;;;;;;;5052802;28;20499;-78
2022/08/02 05:57:13;;;;;;;6.10;4.50;;;;;;;;;;5053341;28;20795;-78
2022/08/02 05:59:39;;;;;;;6.77;4.80;;;;;;;;;;5051510;28;20986;-78
2022/08/02 06:02:15;;;;;;;6.00;5.10;;;;;;;;;;5044184;28;20410;-79
2022/08/02 06:04:51;;;;;;;5.17;4.43;;;;;;;;;;5043066;28;20435;-78
2022/08/02 06:07:19;;;;;;;4.97;4.50;;;;;;;;;;5033389;28;20868;-78
2022/08/02 06:09:46;;;;;;;5.40;4.60;;;;;;;;;;5033104;28;20790;-78
2022/08/02 06:12:12;;;;;;;7.20;4.63;;;;;;;;;;5033211;28;20397;-78
2022/08/02 06:14:40;;;;;;;4.97;4.50;;;;;;;;;;5034220;28;20808;-77
2022/08/02 06:17:06;;;;;;;8.93;4.20;;;;;;;;;;5033737;28;20439;-78
2022/08/02 06:19:35;;;;;;;4.33;3.87;;;;;;;;;;5034562;28;20435;-77
2022/08/02 06:22:13;;;;;;;5.30;4.00;;;;;;;;;;5033047;28;20968;-77
2022/08/02 06:24:42;;;;;;;4.30;3.90;;;;;;;;;;5032903;28;20408;-77
2022/08/02 06:27:08;;;;;;;6.63;4.40;;;;;;;;;;5033089;28;20415;-77
2022/08/02 06:29:38;;;;;;;4.80;4.33;;;;;;;;;;5032726;28;20468;-78
2022/08/02 06:32:13;;;;;;;4.73;4.03;;;;;;;;;;5032987;28;20396;-77
2022/08/02 06:34:39;;;;;;;7.90;3.50;;;;;;;;;;5030902;28;20452;-77
2022/08/02 06:37:24;;;;;;;4.80;4.03;;;;;;;;;;5032680;28;20946;-77
2022/08/02 06:39:53;;;;;;;4.83;3.77;;;;;;;;;;5031159;28;21058;-78
2022/08/02 06:42:26;;;;;;;5.50;4.17;;;;;;;;;;5032427;28;20425;-78
2022/08/02 06:44:52;;;;;;;5.33;4.07;;;;;;;;;;5032496;28;20398;-77
2022/08/02 06:47:21;;;;;;;4.57;4.17;;;;;;;;;;5032815;28;20397;-78
2022/08/02 06:49:47;;;;;;;4.37;3.97;;;;;;;;;;5031307;28;20415;-78
2022/08/02 06:52:13;;;;;;;5.80;3.97;;;;;;;;;;5036370;28;20413;-78
2022/08/02 06:54:42;;;;;;;6.50;4.57;;;;;;;;;;5057593;22;20471;-78
2022/08/02 07:00:07;;;;;;;4.00;3.60;;;;;;;;;;5047355;28;20424;-75
2022/08/02 07:02:34;;;;;;;8.10;3.97;;;;;;;;;;5056039;28;20445;-76
2022/08/02 07:05:00;;;;;;;4.13;3.73;;;;;;;;;;5056071;28;20744;-75
2022/08/02 07:07:26;;;;;;;8.33;3.80;;;;;;;;;;5056268;28;20409;-75
2022/08/02 07:09:52;;;;;;;5.80;3.83;;;;;;;;;;5056025;28;20439;-74
2022/08/02 07:12:19;;;;;;;7.13;3.30;;;;;;;;;;5055579;28;20414;-75
2022/08/02 07:14:45;;;;;;;4.37;3.43;;;;;;;;;;5036472;28;20983;-75
2022/08/02 07:17:11;;;;;;;7.53;3.90;;;;;;;;;;5044684;28;20541;-74
2022/08/02 07:19:37;;;;;;;6.87;3.27;;;;;;;;;;5055803;28;20437;-74
2022/08/02 07:22:03;;;;;;;7.30;3.40;;;;;;;;;;5055694;28;20418;-74
2022/08/02 07:24:29;;;;;;;4.50;2.70;;;;;;;;;;5055430;28;20442;-76
2022/08/02 07:26:56;;;;;;;3.80;2.90;;;;;;;;;;5055722;28;20436;-74
2022/08/02 07:29:22;;;;;;;4.70;3.60;;;;;;;;;;5055653;28;20755;-75
2022/08/02 07:31:48;;;;;;;4.20;2.90;;;;;;;;;;5055680;28;20459;-75
2022/08/02 07:34:14;;;;;;;5.13;2.87;;;;;;;;;;5056736;28;20436;-76
2022/08/02 07:36:40;;;;;;;3.60;2.80;;;;;;;;;;5055673;28;20415;-76
2022/08/02 07:39:06;;;;;;;4.33;3.47;;;;;;;;;;5055747;28;20478;-75
2022/08/02 07:41:32;;;;;;;5.63;2.93;;;;;;;;;;5055512;28;20735;-76
2022/08/02 07:43:58;;;;;;;2.97;2.67;;;;;;;;;;5055173;28;20495;-77
2022/08/02 07:46:24;;;;;;;6.40;3.00;;;;;;;;;;5054170;28;20461;-76
2022/08/02 07:48:53;;;;;;;7.63;2.67;;;;;;;;;;5055497;28;20410;-75
2022/08/02 07:51:19;;;;;;;8.50;3.27;;;;;;;;;;5055661;28;20432;-75
2022/08/02 07:53:45;;;;;;;5.60;3.13;;;;;;;;;;5054884;28;20544;-75
2022/08/02 07:56:11;;;;;;;5.63;2.67;;;;;;;;;;5055355;28;20985;-75
2022/08/02 07:58:37;;;;;;;6.90;2.87;;;;;;;;;;5055149;28;20464;-76
2022/08/02 08:01:03;;;;;;;4.50;2.70;;;;;;;;;;5055587;28;20387;-76
2022/08/02 08:03:29;;;;;;;4.23;2.63;;;;;;;;;;5036705;28;20481;-75
2022/08/02 08:05:55;;;;;;;3.07;2.77;;;;;;;;;;5035328;28;20437;-75
2022/08/02 08:08:21;;;;;;;5.33;3.10;;;;;;;;;;5035133;28;20885;-75
2022/08/02 08:10:47;;;;;;;5.53;3.10;;;;;;;;;;5035323;28;20420;-76
2022/08/02 08:13:13;;;;;;;5.70;2.97;;;;;;;;;;5034718;28;20854;-75
2022/08/02 08:15:39;;;;;;;6.17;3.10;;;;;;;;;;5035022;28;20732;-75
2022/08/02 08:18:05;;;;;;;3.10;2.60;;;;;;;;;;5033578;28;20434;-75
2022/08/02 08:20:31;;;;;;;4.03;2.60;;;;;;;;;;5034844;28;20402;-76
2022/08/02 08:22:57;;;;;;;3.00;2.30;;;;;;;;;;5034529;28;20406;-75
2022/08/02 08:25:23;;;;;;;2.57;2.33;;;;;;;;;;5034846;28;20940;-76
2022/08/02 08:27:51;;;;;;;3.67;2.67;;;;;;;;;;5035145;28;20418;-76
2022/08/02 08:30:17;;;;;;;5.17;1.70;;;;;;;;;;5034744;28;20764;-76
2022/08/02 08:32:43;;;;;;;4.53;2.03;;;;;;;;;;5034143;28;20504;-75
2022/08/02 08:35:09;;;;;;;4.00;2.30;;;;;;;;;;5034681;28;20805;-76
2022/08/02 08:37:36;;;;;;;2.10;1.90;;;;;;;;;;5034538;28;20906;-76
2022/08/02 08:40:03;;;;;;;2.70;1.83;;;;;;;;;;5034484;28;20461;-76
2022/08/02 08:42:30;;;;;;;2.93;2.30;;;;;;;;;;5034237;28;20489;-76
2022/08/02 08:44:56;;;;;;;1.70;1.60;;;;;;;;;;5034144;28;20422;-76
2022/08/02 08:47:23;;;;;;;4.37;1.77;;;;;;;;;;5034483;28;20398;-76
2022/08/02 08:49:51;;;;;;;1.70;1.50;;;;;;;;;;5034491;28;20475;-76
2022/08/02 08:52:18;;;;;;;2.30;2.10;;;;;;;;;;5034043;28;20402;-76
2022/08/02 08:54:47;;;;;;;2.43;1.67;;;;;;;;;;5033936;28;20457;-76
2022/08/02 08:57:14;;;;;;;2.37;1.70;;;;;;;;;;5034308;28;20410;-76
2022/08/02 08:59:40;;;;;;;5.13;1.70;;;;;;;;;;5034160;28;20461;-76
2022/08/02 09:02:07;;;;;;;4.50;2.30;;;;;;;;;;5034269;28;20433;-76
2022/08/02 09:04:34;;;;;;;6.30;1.77;;;;;;;;;;5033975;28;20429;-76
2022/08/02 09:07:00;;;;;;;2.87;2.00;;;;;;;;;;5034150;28;20910;-76
2022/08/02 09:09:26;;;;;;;11.40;2.70;;;;;;;;;;5034172;28;20440;-75
2022/08/02 09:11:52;;;;;;;3.03;2.20;;;;;;;;;;5038158;28;20420;-75
2022/08/02 09:14:28;;;;;;;4.43;2.20;;;;;;;;;;5043634;28;20844;-75
2022/08/02 09:17:05;;;;;;;3.13;2.20;;;;;;;;;;5053788;28;20416;-76
2022/08/02 09:19:32;;;;;;;3.50;2.20;;;;;;;;;;5033813;28;20464;-76
2022/08/02 09:22:06;;;;;;;7.43;2.30;;;;;;;;;;5033817;28;20899;-76
2022/08/02 09:24:45;;;;;;;3.83;2.10;;;;;;;;;;5033216;28;20432;-76
2022/08/02 09:27:16;;;;;;;3.70;2.00;;;;;;;;;;5033582;28;20402;-76
2022/08/02 09:29:45;;;;;;;6.23;2.00;;;;;;;;;;5033542;28;20421;-77
2022/08/02 09:32:12;;;;;;;4.70;1.90;;;;;;;;;;5033154;28;20409;-75
2022/08/02 09:34:51;;;;;;;2.73;1.80;;;;;;;;;;5033186;28;20791;-76
2022/08/02 09:37:24;;;;;;;4.73;2.20;;;;;;;;;;5033560;28;20412;-75
2022/08/02 09:39:51;;;;;;;3.70;2.07;;;;;;;;;;5033290;28;20822;-75
2022/08/02 09:42:17;;;;;;;3.33;2.00;;;;;;;;;;5033150;28;20435;-76
2022/08/02 09:44:59;;;;;;;2.20;2.00;;;;;;;;;;5033235;28;20457;-75
2022/08/02 09:47:25;;;;;;;2.47;2.20;;;;;;;;;;5033120;28;20409;-76
2022/08/02 09:49:53;;;;;;;2.87;1.60;;;;;;;;;;5033305;28;20754;-76
2022/08/02 09:52:25;;;;;;;3.13;1.53;;;;;;;;;;5032840;28;20405;-75
2022/08/02 09:54:51;;;;;;;2.23;1.70;;;;;;;;;;5033296;28;20449;-76
2022/08/02 09:57:25;;;;;;;3.23;1.60;;;;;;;;;;5038155;28;20474;-76
2022/08/02 09:59:52;;;;;;;1.63;1.43;;;;;;;;;;5038738;28;20441;-77
2022/08/02 10:02:18;;;;;;;2.40;2.07;;;;;;;;;;5033822;28;20414;-76
2022/08/02 10:04:45;;;;;;;2.30;1.80;;;;;;;;;;5053159;28;20460;-76
2022/08/02 10:07:11;;;;;;;3.97;1.80;;;;;;;;;;5052008;28;20406;-75
2022/08/02 10:09:37;;;;;;;2.63;1.73;;;;;;;;;;5052992;28;20405;-75
2022/08/02 10:12:03;;;;;;;2.27;2.10;;;;;;;;;;5049793;28;20534;-76
2022/08/02 10:14:29;;;;;;;4.20;1.97;;;;;;;;;;5036520;28;20866;-75
2022/08/02 10:16:57;;;;;;;3.67;2.13;;;;;;;;;;5043086;28;20444;-75
2022/08/02 10:19:23;;;;;;;3.00;1.87;;;;;;;;;;5049529;28;20826;-76
2022/08/02 10:21:52;;;;;;;2.47;1.60;;;;;;;;;;5050227;28;20485;-76
2022/08/02 10:24:20;;;;;;;2.23;2.07;;;;;;;;;;5041863;28;20456;-76
2022/08/02 10:26:47;;;;;;;3.13;2.00;;;;;;;;;;5040222;28;20417;-75
2022/08/02 10:29:20;;;;;;;3.07;1.50;;;;;;;;;;5036773;28;20775;-76
2022/08/02 10:31:53;;;;;;;3.90;1.90;;;;;;;;;;5036683;28;20424;-75
2022/08/02 10:34:21;;;;;;;4.10;1.80;;;;;;;;;;5036442;28;20555;-74
2022/08/02 10:36:47;;;;;;;6.83;2.17;;;;;;;;;;5036740;28;20414;-75
2022/08/02 10:39:14;;;;;;;3.67;2.00;;;;;;;;;;5036805;28;20463;-74
2022/08/02 10:41:41;;;;;;;3.20;2.43;;;;;;;;;;5036352;28;20479;-74
2022/08/02 10:44:07;;;;;;;4.87;2.20;;;;;;;;;;5036306;28;20898;-75
2022/08/02 10:46:34;;;;;;;5.70;1.77;;;;;;;;;;5036734;28;20823;-74
2022/08/02 10:49:09;;;;;;;3.67;1.73;;;;;;;;;;5036416;28;20439;-75
2022/08/02 10:51:54;;;;;;;2.17;1.60;;;;;;;;;;5042807;28;20432;-76
2022/08/02 10:54:21;;;;;;;1.90;1.70;;;;;;;;;;5035838;28;20452;-75
2022/08/02 10:56:48;;;;;;;1.80;1.70;;;;;;;;;;5036330;28;20409;-74
2022/08/02 10:59:30;;;;;;;2.23;1.70;;;;;;;;;;5036172;28;20825;-74
2022/08/02 11:02:03;;;;;;;3.10;1.83;;;;;;;;;;5036435;28;20427;-74
2022/08/02 11:04:52;;;;;;;4.17;2.27;;;;;;;;;;5035899;28;20432;-75
2022/08/02 11:07:20;;;;;;;2.63;1.83;;;;;;;;;;5036347;28;20496;-74
2022/08/02 11:09:48;;;;;;;1.90;1.80;;;;;;;;;;5036072;28;20414;-75
2022/08/02 11:12:15;;;;;;;3.00;2.17;;;;;;;;;;5036243;28;20464;-74
2022/08/02 11:14:43;;;;;;;4.10;1.93;;;;;;;;;;5036181;28;20495;-74
2022/08/02 11:17:11;;;;;;;2.27;1.90;;;;;;;;;;5037212;28;20453;-73
2022/08/02 11:19:55;;;;;;;2.33;1.77;;;;;;;;;;5046432;28;20479;-73
2022/08/02 11:22:21;;;;;;;2.30;1.80;;;;;;;;;;5035753;28;20414;-73
2022/08/02 11:24:47;;;;;;;3.53;2.10;;;;;;;;;;5054644;28;20428;-73
2022/08/02 11:27:18;;;;;;;1.87;1.70;;;;;;;;;;5055911;28;20405;-73
2022/08/02 11:29:45;;;;;;;1.87;1.57;;;;;;;;;;5054432;28;20452;-73
2022/08/02 11:32:19;;;;;;;1.90;1.80;;;;;;;;;;5055508;28;20802;-73
2022/08/02 11:34:52;;;;;;;3.70;1.47;;;;;;;;;;5055080;28;20440;-73
2022/08/02 11:37:31;;;;;;;3.23;1.67;;;;;;;;;;5034587;28;20419;-73
2022/08/02 11:39:57;;;;;;;2.57;1.87;;;;;;;;;;5035460;28;20452;-73
2022/08/02 11:42:33;;;;;;;1.73;1.60;;;;;;;;;;5035207;28;20496;-74
2022/08/02 11:44:59;;;;;;;2.77;1.93;;;;;;;;;;5035556;28;20453;-74
2022/08/02 11:47:25;;;;;;;2.80;1.93;;;;;;;;;;5035225;28;20424;-73
2022/08/02 11:49:51;;;;;;;5.00;2.40;;;;;;;;;;5035488;28;20548;-73
2022/08/02 11:52:17;;;;;;;6.80;2.27;;;;;;;;;;5034009;28;20917;-73
2022/08/02 11:54:44;;;;;;;4.60;1.80;;;;;;;;;;5035185;28;20465;-74
2022/08/02 11:57:12;;;;;;;7.73;2.00;;;;;;;;;;5035465;28;20409;-73
2022/08/02 11:59:42;;;;;;;3.10;2.23;;;;;;;;;;5034094;28;21011;-74
2022/08/02 12:02:09;;;;;;;3.70;1.60;;;;;;;;;;5034978;28;20967;-74
2022/08/02 12:04:35;;;;;;;1.40;1.30;;;;;;;;;;5035038;28;20953;-74
2022/08/02 12:07:02;;;;;;;3.50;2.03;;;;;;;;;;5035277;28;20401;-74
2022/08/02 12:09:29;;;;;;;2.43;1.53;;;;;;;;;;5035183;28;20414;-74
2022/08/02 12:11:55;;;;;;;3.07;1.83;;;;;;;;;;5035145;28;20421;-74
2022/08/02 12:14:22;;;;;;;2.83;1.97;;;;;;;;;;5034583;28;20430;-74
2022/08/02 12:19:34;;;;;;;2.93;1.47;;;;;;;;;;5034970;28;20535;-73
2022/08/02 12:22:12;;;;;;;2.00;1.80;;;;;;;;;;5034941;28;20441;-73
2022/08/02 12:24:38;;;;;;;1.87;1.50;;;;;;;;;;5034375;28;20433;-73
2022/08/02 12:27:04;;;;;;;1.60;1.40;;;;;;;;;;5034809;28;20916;-73
2022/08/02 12:29:38;;;;;;;1.67;1.57;;;;;;;;;;5034686;28;20456;-74
2022/08/02 12:32:04;;;;;;;2.57;1.70;;;;;;;;;;5034591;28;20847;-74
2022/08/02 12:34:31;;;;;;;4.27;1.97;;;;;;;;;;5034060;28;20441;-74
2022/08/02 12:37:07;;;;;;;1.80;1.70;;;;;;;;;;5034627;28;20432;-73
2022/08/02 12:39:38;;;;;;;3.20;2.07;;;;;;;;;;5034395;28;20465;-74
2022/08/02 12:42:05;;;;;;;2.90;1.77;;;;;;;;;;5034387;28;20409;-73
2022/08/02 12:44:31;;;;;;;2.20;1.57;;;;;;;;;;5033864;28;20548;-74
2022/08/02 12:47:00;;;;;;;1.70;1.60;;;;;;;;;;5034582;28;20401;-73
2022/08/02 12:49:26;;;;;;;2.20;1.50;;;;;;;;;;5034208;28;20521;-74
2022/08/02 12:51:52;;;;;;;4.30;1.57;;;;;;;;;;5034398;28;20410;-74
2022/08/02 12:54:23;;;;;;;3.20;1.43;;;;;;;;;;5033576;28;20502;-74
2022/08/02 12:56:50;;;;;;;3.43;2.10;;;;;;;;;;5034110;28;20483;-74
2022/08/02 12:59:17;;;;;;;2.80;1.50;;;;;;;;;;5036800;28;20476;-73
2022/08/02 13:01:44;;;;;;;2.50;1.57;;;;;;;;;;5052851;28;20471;-74
2022/08/02 13:04:10;;;;;;;2.40;1.97;;;;;;;;;;5053459;28;20439;-73
2022/08/02 13:06:36;;;;;;;1.93;1.63;;;;;;;;;;5052986;28;20405;-76
2022/08/02 13:09:11;;;;;;;3.57;1.67;;;;;;;;;;5053963;28;20424;-73
2022/08/02 13:11:37;;;;;;;1.60;1.50;;;;;;;;;;5053637;28;20413;-74
2022/08/02 13:14:03;;;;;;;3.43;2.00;;;;;;;;;;5052752;28;20468;-73
2022/08/02 13:16:30;;;;;;;2.40;2.20;;;;;;;;;;5053684;28;20539;-73
2022/08/02 13:18:56;;;;;;;3.10;1.70;;;;;;;;;;5053413;28;20478;-73
2022/08/02 13:21:22;;;;;;;1.83;1.70;;;;;;;;;;5051612;28;20412;-74
2022/08/02 13:23:48;;;;;;;1.87;1.37;;;;;;;;;;5052716;28;20466;-73
2022/08/02 13:26:13;;;;;;;3.97;2.00;;;;;;;;;;5053201;28;20803;-74
2022/08/02 13:28:41;;;;;;;4.57;1.70;;;;;;;;;;5051845;28;20512;-74
2022/08/02 13:31:07;;;;;;;4.53;1.80;;;;;;;;;;5053405;28;20427;-73
2022/08/02 13:33:33;;;;;;;4.57;2.03;;;;;;;;;;5052984;28;20440;-73
2022/08/02 13:35:59;;;;;;;3.13;1.80;;;;;;;;;;5052860;28;20803;-73
2022/08/02 13:38:25;;;;;;;4.00;2.00;;;;;;;;;;5053191;28;20813;-73
2022/08/02 13:41:10;;;;;;;6.20;1.80;;;;;;;;;;5053251;28;20501;-75
2022/08/02 13:43:37;;;;;;;2.23;1.53;;;;;;;;;;5052144;28;20512;-73
2022/08/02 13:46:03;;;;;;;2.00;1.90;;;;;;;;;;5053166;28;20397;-73
2022/08/02 13:48:29;;;;;;;3.57;1.90;;;;;;;;;;5053200;28;20500;-73
2022/08/02 13:50:55;;;;;;;6.03;2.20;;;;;;;;;;5052279;28;20416;-74
2022/08/02 13:53:22;;;;;;;3.60;1.83;;;;;;;;;;5052418;28;20449;-74
2022/08/02 13:55:48;;;;;;;3.50;1.87;;;;;;;;;;5053403;28;20764;-74
2022/08/02 13:58:14;;;;;;;3.47;2.17;;;;;;;;;;5052129;28;20547;-73
2022/08/02 14:00:40;;;;;;;2.80;1.70;;;;;;;;;;5048969;28;20424;-76
2022/08/02 14:03:06;;;;;;;1.50;1.40;;;;;;;;;;5052040;28;20440;-77
2022/08/02 14:05:32;;;;;;;1.87;1.77;;;;;;;;;;5052304;28;20527;-77
2022/08/02 14:07:59;;;;;;;2.50;1.93;;;;;;;;;;5054327;28;20407;-76
2022/08/02 14:10:25;;;;;;;6.43;1.80;;;;;;;;;;5053102;28;20911;-76
2022/08/02 14:12:54;;;;;;;2.90;2.00;;;;;;;;;;5052240;28;20498;-77
2022/08/02 14:15:20;;;;;;;3.47;1.77;;;;;;;;;;5052913;28;20566;-76
2022/08/02 14:17:46;;;;;;;1.83;1.60;;;;;;;;;;5052270;28;20845;-77
2022/08/02 14:20:13;;;;;;;3.40;2.27;;;;;;;;;;5044021;28;20504;-75
2022/08/02 14:22:39;;;;;;;1.90;1.60;;;;;;;;;;5043701;28;20417;-76
2022/08/02 14:25:05;;;;;;;4.83;1.67;;;;;;;;;;5041689;28;20410;-76
2022/08/02 14:27:31;;;;;;;1.90;1.77;;;;;;;;;;5042298;28;20898;-75
2022/08/02 14:29:58;;;;;;;1.40;1.30;;;;;;;;;;5042661;28;20503;-76
2022/08/02 14:32:25;;;;;;;2.23;1.90;;;;;;;;;;5043823;28;20481;-76
2022/08/02 14:34:51;;;;;;;1.77;1.63;;;;;;;;;;5032683;28;20528;-76
2022/08/02 14:37:17;;;;;;;2.77;1.90;;;;;;;;;;5032550;28;20449;-76
2022/08/02 14:39:43;;;;;;;2.83;2.40;;;;;;;;;;5032895;28;20906;-76
2022/08/02 14:42:09;;;;;;;3.10;2.23;;;;;;;;;;5032743;28;20405;-76
2022/08/02 14:44:35;;;;;;;6.07;1.50;;;;;;;;;;5032526;28;20457;-76
2022/08/02 14:47:01;;;;;;;2.70;1.70;;;;;;;;;;5032778;28;20409;-76
2022/08/02 14:49:27;;;;;;;2.90;2.10;;;;;;;;;;5032613;28;20471;-77
2022/08/02 14:51:53;;;;;;;1.70;1.60;;;;;;;;;;5032918;28;20449;-75
2022/08/02 14:54:19;;;;;;;4.37;1.70;;;;;;;;;;5031762;28;20453;-75
2022/08/02 14:56:45;;;;;;;1.63;1.53;;;;;;;;;;5032014;28;20504;-75
2022/08/02 14:59:11;;;;;;;4.53;1.83;;;;;;;;;;5031702;28;20563;-75
2022/08/02 15:01:37;;;;;;;2.73;2.13;;;;;;;;;;5031707;28;20416;-76
2022/08/02 15:04:04;;;;;;;4.70;2.20;;;;;;;;;;5031277;28;20788;-75
2022/08/02 15:06:31;;;;;;;3.10;1.80;;;;;;;;;;5031677;28;20413;-76
2022/08/02 15:08:58;;;;;;;2.80;1.60;;;;;;;;;;5031758;28;20409;-76
2022/08/02 15:11:24;;;;;;;2.20;1.83;;;;;;;;;;5032300;28;20421;-77
2022/08/02 15:13:50;;;;;;;3.20;2.10;;;;;;;;;;5034668;28;20433;-76
2022/08/02 15:16:16;;;;;;;2.70;2.10;;;;;;;;;;5035039;28;20416;-76
2022/08/02 15:18:43;;;;;;;2.53;1.97;;;;;;;;;;5034799;28;20453;-76
2022/08/02 15:21:09;;;;;;;1.90;1.70;;;;;;;;;;5035027;28;20441;-76
2022/08/02 15:23:36;;;;;;;2.70;1.80;;;;;;;;;;5034476;28;20422;-77
2022/08/02 15:26:02;;;;;;;8.57;2.80;;;;;;;;;;5034946;28;20976;-76
2022/08/02 15:28:30;;;;;;;3.70;2.17;;;;;;;;;;5034788;28;20420;-77
2022/08/02 15:30:56;;;;;;;1.70;1.60;;;;;;;;;;5034784;28;20905;-77